createdAt,value
2019-01-21T00:00:39.464Z,39.07
2019-01-21T00:03:14.476Z,38.83
2019-01-21T00:05:39.506Z,39.70
2019-01-21T00:08:08.955Z,38.53
2019-01-21T00:10:39.175Z,38.80
2019-01-21T00:13:08.442Z,37.90
2019-01-21T00:15:37.649Z,36.77
2019-01-21T00:18:06.803Z,34.90
2019-01-21T00:20:37.094Z,35.40
2019-01-21T00:23:06.323Z,35.33
2019-01-21T00:25:35.438Z,34.53
2019-01-21T00:28:04.543Z,35.63
2019-01-21T00:30:33.670Z,34.87
2019-01-21T00:33:02.765Z,35.50
2019-01-21T00:35:31.888Z,33.90
2019-01-21T00:38:00.992Z,35.13
2019-01-21T00:40:30.111Z,35.47
2019-01-21T00:42:59.212Z,32.90
2019-01-21T00:45:28.323Z,34.97
2019-01-21T00:47:58.398Z,33.47
2019-01-21T00:50:27.528Z,33.40
2019-01-21T00:52:56.635Z,34.10
2019-01-21T00:55:25.751Z,34.83
2019-01-21T00:57:54.859Z,35.13
2019-01-21T01:00:25.290Z,32.27
2019-01-21T01:02:54.674Z,32.57
2019-01-21T01:05:23.790Z,32.07
2019-01-21T01:07:52.902Z,34.27
2019-01-21T01:10:22.018Z,31.93
2019-01-21T01:12:51.122Z,32.80
2019-01-21T01:15:20.233Z,31.40
2019-01-21T01:17:49.342Z,32.37
2019-01-21T01:20:19.713Z,34.87
2019-01-21T01:22:48.807Z,34.33
2019-01-21T01:25:17.935Z,32.10
2019-01-21T01:27:47.043Z,32.60
2019-01-21T01:30:16.926Z,33.77
2019-01-21T01:32:46.039Z,33.03
2019-01-21T01:35:15.518Z,34.60
2019-01-21T01:37:44.697Z,30.83
2019-01-21T01:40:15.454Z,32.10
2019-01-21T01:42:44.634Z,34.67
2019-01-21T01:45:17.189Z,33.67
2019-01-21T01:47:46.291Z,33.17
2019-01-21T01:50:15.406Z,31.90
2019-01-21T01:52:44.513Z,32.30
2019-01-21T01:55:13.627Z,32.77
2019-01-21T01:57:42.736Z,32.27
2019-01-21T02:00:15.254Z,33.63
2019-01-21T02:02:44.362Z,31.50
2019-01-21T02:05:13.475Z,32.60
2019-01-21T02:07:42.582Z,30.10
2019-01-21T02:10:13.161Z,33.17
2019-01-21T02:12:42.267Z,32.07
2019-01-21T02:15:13.995Z,32.60
2019-01-21T02:17:43.135Z,32.87
2019-01-21T02:20:18.754Z,29.63
2019-01-21T02:22:50.495Z,30.03
2019-01-21T02:25:19.615Z,30.73
2019-01-21T02:28:11.197Z,31.30
2019-01-21T02:31:10.695Z,32.53
2019-01-21T02:33:59.704Z,30.73
2019-01-21T02:37:05.300Z,31.03
2019-01-21T02:39:55.446Z,32.87
2019-01-21T02:42:48.395Z,35.50
2019-01-21T02:45:29.651Z,32.83
2019-01-21T02:48:14.050Z,34.20
2019-01-21T02:50:46.452Z,34.20
2019-01-21T02:53:24.803Z,34.20
2019-01-21T02:56:12.462Z,34.93
2019-01-21T02:59:03.094Z,33.73
2019-01-21T03:01:58.088Z,33.30
2019-01-21T03:04:33.128Z,34.30
2019-01-21T03:07:28.246Z,35.57
2019-01-21T03:10:00.616Z,35.20
2019-01-21T03:12:44.252Z,35.93
2019-01-21T03:15:16.611Z,37.90
2019-01-21T03:17:55.084Z,37.33
2019-01-21T03:20:50.131Z,38.03
2019-01-21T03:23:28.264Z,35.80
2019-01-21T03:26:18.809Z,35.13
2019-01-21T03:29:06.211Z,35.40
2019-01-21T03:31:53.008Z,35.80
2019-01-21T03:34:43.401Z,34.80
2019-01-21T03:37:27.634Z,35.80
2019-01-21T03:40:00.000Z,33.47
2019-01-21T03:42:44.143Z,35.93
2019-01-21T03:45:28.129Z,35.67
2019-01-21T03:48:00.876Z,35.70
2019-01-21T03:50:33.262Z,34.83
2019-01-21T03:53:17.319Z,35.43
2019-01-21T03:55:48.666Z,35.53
2019-01-21T03:58:29.922Z,35.83
2019-01-21T04:01:08.032Z,34.60
2019-01-21T04:04:15.368Z,35.63
2019-01-21T04:06:47.731Z,34.60
2019-01-21T04:09:31.728Z,36.53
2019-01-21T04:12:09.851Z,35.10
2019-01-21T04:15:13.384Z,35.67
2019-01-21T04:18:04.094Z,35.07
2019-01-21T04:21:02.260Z,35.07
2019-01-21T04:23:46.834Z,35.73
2019-01-21T04:26:31.436Z,33.93
2019-01-21T04:29:09.530Z,35.43
2019-01-21T04:32:06.225Z,35.93
2019-01-21T04:34:47.430Z,34.40
2019-01-21T04:37:25.728Z,33.83
2019-01-21T04:40:09.816Z,36.23
2019-01-21T04:42:51.258Z,33.37
2019-01-21T04:45:26.217Z,32.53
2019-01-21T04:48:16.532Z,34.57
2019-01-21T04:50:54.081Z,33.00
2019-01-21T04:53:35.104Z,34.87
2019-01-21T04:56:07.467Z,38.30
2019-01-21T04:58:55.078Z,33.73
2019-01-21T05:01:42.583Z,33.70
2019-01-21T05:04:20.702Z,33.30
2019-01-21T05:07:04.877Z,36.13
2019-01-21T05:09:46.316Z,35.90
2019-01-21T05:12:43.784Z,31.60
2019-01-21T05:15:45.129Z,31.67
2019-01-21T05:18:31.909Z,32.90
2019-01-21T05:21:13.288Z,33.30
2019-01-21T05:24:03.361Z,33.53
2019-01-21T05:27:03.057Z,31.53
2019-01-21T05:29:43.919Z,27.87
2019-01-21T05:32:41.894Z,27.50
2019-01-21T05:35:30.599Z,27.90
2019-01-21T05:38:06.357Z,29.60
2019-01-21T05:41:05.779Z,26.43
2019-01-21T05:43:50.105Z,26.33
2019-01-21T05:46:28.011Z,28.87
2019-01-21T05:49:05.889Z,28.67
2019-01-21T05:51:59.376Z,29.33
2019-01-21T05:54:48.344Z,28.57
2019-01-21T05:57:53.763Z,26.37
2019-01-21T06:00:47.084Z,27.57
2019-01-21T06:03:31.231Z,26.87
2019-01-21T06:06:03.606Z,28.47
2019-01-21T06:08:55.434Z,27.80
2019-01-21T06:11:27.795Z,28.97
2019-01-21T06:14:00.207Z,30.73
2019-01-21T06:16:32.577Z,29.83
2019-01-21T06:19:09.355Z,29.87
2019-01-21T06:21:44.622Z,30.73
2019-01-21T06:24:37.137Z,30.93
2019-01-21T06:27:12.326Z,28.33
2019-01-21T06:29:53.438Z,28.87
2019-01-21T06:32:31.395Z,30.27
2019-01-21T06:35:03.767Z,27.17
2019-01-21T06:37:47.920Z,30.37
2019-01-21T06:40:36.822Z,31.93
2019-01-21T06:43:25.736Z,32.90
2019-01-21T06:46:03.797Z,32.27
2019-01-21T06:48:53.833Z,30.60
2019-01-21T06:51:31.836Z,33.80
2019-01-21T06:54:31.365Z,30.97
2019-01-21T06:57:18.830Z,31.80
2019-01-21T06:59:56.948Z,31.20
2019-01-21T07:02:41.217Z,31.20
2019-01-21T07:05:19.389Z,30.87
2019-01-21T07:08:06.912Z,31.23
2019-01-21T07:10:39.293Z,30.70
2019-01-21T07:13:20.675Z,32.70
2019-01-21T07:16:11.256Z,32.83
2019-01-21T07:19:04.080Z,31.43
2019-01-21T07:22:03.614Z,30.97
2019-01-21T07:24:48.088Z,28.87
2019-01-21T07:27:20.471Z,28.57
2019-01-21T07:30:09.188Z,30.33
2019-01-21T07:32:50.467Z,30.20
2019-01-21T07:35:42.416Z,30.93
2019-01-21T07:38:14.799Z,30.57
2019-01-21T07:40:58.477Z,28.77
2019-01-21T07:43:48.903Z,30.07
2019-01-21T07:46:36.127Z,29.20
2019-01-21T07:49:25.223Z,29.47
2019-01-21T07:52:14.487Z,30.13
2019-01-21T07:54:46.852Z,32.47
2019-01-21T07:57:47.956Z,32.37
2019-01-21T08:00:26.050Z,32.00
2019-01-21T08:03:03.720Z,32.03
2019-01-21T08:05:44.327Z,34.73
2019-01-21T08:08:37.970Z,32.63
2019-01-21T08:11:22.068Z,34.60
2019-01-21T08:14:00.237Z,35.90
2019-01-21T08:16:56.899Z,39.47
2019-01-21T08:19:51.664Z,40.67
2019-01-21T08:22:52.146Z,40.57
2019-01-21T08:25:47.344Z,40.10
2019-01-21T08:28:25.556Z,39.63
2019-01-21T08:31:14.714Z,38.53
2019-01-21T08:33:55.624Z,40.70
2019-01-21T08:36:44.745Z,38.83
2019-01-21T08:39:35.281Z,37.87
2019-01-21T08:42:13.140Z,41.93
2019-01-21T08:45:03.363Z,37.97
2019-01-21T08:47:35.746Z,33.83
2019-01-21T08:50:18.330Z,34.97
2019-01-21T08:52:58.896Z,34.27
2019-01-21T08:55:47.692Z,36.17
2019-01-21T08:58:22.731Z,35.77
2019-01-21T09:01:00.580Z,32.37
2019-01-21T09:03:44.843Z,37.07
2019-01-21T09:06:32.424Z,36.23
2019-01-21T09:09:10.562Z,33.23
2019-01-21T09:12:17.336Z,35.97
2019-01-21T09:14:55.729Z,36.13
2019-01-21T09:17:44.006Z,39.63
2019-01-21T09:20:28.228Z,37.87
2019-01-21T09:23:06.692Z,37.77
2019-01-21T09:25:47.885Z,36.57
2019-01-21T09:28:23.257Z,39.00
2019-01-21T09:31:07.400Z,37.70
2019-01-21T09:33:51.480Z,38.50
2019-01-21T09:36:32.611Z,38.60
2019-01-21T09:39:04.987Z,38.33
2019-01-21T09:41:55.525Z,39.40
2019-01-21T09:44:27.959Z,37.90
2019-01-21T09:46:56.237Z,36.40
2019-01-21T09:49:24.529Z,36.67
2019-01-21T09:51:54.168Z,34.17
2019-01-21T09:54:23.427Z,34.37
2019-01-21T09:56:54.783Z,33.43
2019-01-21T09:59:24.887Z,35.27
2019-01-21T10:01:56.494Z,35.60
2019-01-21T10:04:31.800Z,36.70
2019-01-21T10:07:09.767Z,36.63
2019-01-21T10:09:44.658Z,35.27
2019-01-21T10:12:28.816Z,38.33
2019-01-21T10:15:10.212Z,40.70
2019-01-21T10:18:03.754Z,37.83
2019-01-21T10:20:58.802Z,37.50
2019-01-21T10:23:33.999Z,38.23
2019-01-21T10:26:22.836Z,41.07
2019-01-21T10:28:55.223Z,38.37
2019-01-21T10:31:48.679Z,37.60
2019-01-21T10:34:40.786Z,34.60
2019-01-21T10:37:19.079Z,34.43
2019-01-21T10:40:07.982Z,33.87
2019-01-21T10:42:46.534Z,36.63
2019-01-21T10:45:24.860Z,33.90
2019-01-21T10:48:03.066Z,35.00
2019-01-21T10:50:44.622Z,32.97
2019-01-21T10:53:17.059Z,33.70
2019-01-21T10:56:04.563Z,34.37
2019-01-21T10:59:10.568Z,35.17
2019-01-21T11:02:06.393Z,35.90
2019-01-21T11:04:59.339Z,33.13
2019-01-21T11:07:46.600Z,33.67
2019-01-21T11:10:27.406Z,33.20
2019-01-21T11:13:17.932Z,33.13
2019-01-21T11:15:56.031Z,33.83
2019-01-21T11:18:28.395Z,33.30
2019-01-21T11:21:03.552Z,34.60
2019-01-21T11:23:41.514Z,33.60
2019-01-21T11:26:39.288Z,33.37
2019-01-21T11:29:29.715Z,33.40
2019-01-21T11:32:11.104Z,33.80
2019-01-21T11:34:57.855Z,33.57
2019-01-21T11:37:38.633Z,33.07
2019-01-21T11:40:19.549Z,32.57
2019-01-21T11:43:00.651Z,33.57
2019-01-21T11:45:38.634Z,29.93
2019-01-21T11:48:23.166Z,30.70
2019-01-21T11:51:01.503Z,31.83
2019-01-21T11:53:57.853Z,28.03
2019-01-21T11:56:30.215Z,24.30
2019-01-21T11:59:16.900Z,24.97
2019-01-21T12:02:16.812Z,23.97
2019-01-21T12:05:05.852Z,25.47
2019-01-21T12:07:56.395Z,25.03
2019-01-21T12:10:49.731Z,22.13
2019-01-21T12:13:55.762Z,23.83
2019-01-21T12:16:28.131Z,23.73
2019-01-21T12:19:12.533Z,25.47
2019-01-21T12:22:13.274Z,25.40
2019-01-21T12:24:43.418Z,22.97
2019-01-21T12:27:21.862Z,24.93
2019-01-21T12:30:00.174Z,24.80
2019-01-21T12:32:47.034Z,25.17
2019-01-21T12:35:28.160Z,23.33
2019-01-21T12:38:00.609Z,25.90
2019-01-21T12:40:44.980Z,24.17
2019-01-21T12:43:26.934Z,22.83
2019-01-21T12:46:07.842Z,24.27
2019-01-21T12:48:40.220Z,23.10
2019-01-21T12:51:15.254Z,23.53
2019-01-21T12:54:15.666Z,23.37
2019-01-21T12:57:03.183Z,24.73
2019-01-21T12:59:53.886Z,27.70
2019-01-21T13:02:40.802Z,24.40
2019-01-21T13:05:22.026Z,22.73
2019-01-21T13:07:54.399Z,23.73
2019-01-21T13:10:32.498Z,30.77
2019-01-21T13:13:20.006Z,26.80
2019-01-21T13:15:52.367Z,26.20
2019-01-21T13:18:24.753Z,22.47
2019-01-21T13:21:02.408Z,25.80
2019-01-21T13:23:34.796Z,23.77
2019-01-21T13:26:24.969Z,23.17
2019-01-21T13:29:14.998Z,23.30
2019-01-21T13:31:47.368Z,22.00
2019-01-21T13:34:48.802Z,23.40
2019-01-21T13:37:27.352Z,22.07
2019-01-21T13:40:14.361Z,22.00
2019-01-21T13:43:13.815Z,21.97
2019-01-21T13:45:48.911Z,21.23
2019-01-21T13:48:21.279Z,22.40
2019-01-21T13:51:04.989Z,22.07
2019-01-21T13:53:55.515Z,22.10
2019-01-21T13:56:33.615Z,21.47
2019-01-21T13:59:36.363Z,21.10
2019-01-21T14:02:14.647Z,19.20
2019-01-21T14:04:49.912Z,19.97
2019-01-21T14:07:55.689Z,20.30
2019-01-21T14:10:55.020Z,19.03
2019-01-21T14:13:27.384Z,20.43
2019-01-21T14:16:08.447Z,19.43
2019-01-21T14:18:57.547Z,20.17
2019-01-21T14:21:35.838Z,19.83
2019-01-21T14:24:24.843Z,21.27
2019-01-21T14:27:02.692Z,19.13
2019-01-21T14:29:47.127Z,19.00
2019-01-21T14:32:35.949Z,19.40
2019-01-21T14:35:09.287Z,20.47
2019-01-21T14:37:53.579Z,20.63
2019-01-21T14:40:31.888Z,19.37
2019-01-21T14:43:27.975Z,20.13
2019-01-21T14:46:19.745Z,19.40
2019-01-21T14:49:04.456Z,20.23
2019-01-21T14:51:52.935Z,20.40
2019-01-21T14:54:25.292Z,20.80
2019-01-21T14:57:15.556Z,19.33
2019-01-21T14:59:51.787Z,20.57
2019-01-21T15:02:29.791Z,20.87
2019-01-21T15:05:20.019Z,21.37
2019-01-21T15:07:55.148Z,19.53
2019-01-21T15:10:30.140Z,22.43
2019-01-21T15:13:11.182Z,21.80
2019-01-21T15:16:07.572Z,22.37
2019-01-21T15:18:42.743Z,22.67
2019-01-21T15:21:29.721Z,21.23
2019-01-21T15:24:17.079Z,21.97
2019-01-21T15:26:55.151Z,20.57
2019-01-21T15:29:33.310Z,20.67
2019-01-21T15:32:26.803Z,21.60
2019-01-21T15:35:01.853Z,22.40
2019-01-21T15:37:52.409Z,23.10
2019-01-21T15:40:36.578Z,21.90
2019-01-21T15:43:11.843Z,21.50
2019-01-21T15:45:44.294Z,22.37
2019-01-21T15:48:34.082Z,22.77
2019-01-21T15:51:09.267Z,21.77
2019-01-21T15:54:15.007Z,23.87
2019-01-21T15:56:50.379Z,22.77
2019-01-21T15:59:37.798Z,24.50
2019-01-21T16:02:12.903Z,25.83
2019-01-21T16:04:54.123Z,26.53
2019-01-21T16:07:27.460Z,26.30
2019-01-21T16:10:08.516Z,25.97
2019-01-21T16:13:03.419Z,25.37
2019-01-21T16:15:47.721Z,26.00
2019-01-21T16:18:28.852Z,26.43
2019-01-21T16:21:23.646Z,28.83
2019-01-21T16:24:01.643Z,27.10
2019-01-21T16:26:34.056Z,29.37
2019-01-21T16:29:12.289Z,29.33
2019-01-21T16:31:42.135Z,29.53
2019-01-21T16:34:23.192Z,30.13
2019-01-21T16:37:12.094Z,29.77
2019-01-21T16:39:50.382Z,29.10
2019-01-21T16:42:18.591Z,33.03
2019-01-21T16:44:47.739Z,30.67
2019-01-21T16:47:16.838Z,29.10
2019-01-21T16:49:45.942Z,30.23
2019-01-21T16:52:15.046Z,31.77
2019-01-21T16:54:44.170Z,28.57
2019-01-21T16:57:13.485Z,29.37
2019-01-21T16:59:42.912Z,31.17
2019-01-21T17:02:12.022Z,30.83
2019-01-21T17:04:41.272Z,31.33
2019-01-21T17:07:10.386Z,32.50
2019-01-21T17:09:39.521Z,33.03
2019-01-21T17:12:08.840Z,32.67
2019-01-21T17:14:39.355Z,32.73
2019-01-21T17:17:08.564Z,33.03
2019-01-21T17:19:37.787Z,32.50
2019-01-21T17:22:06.925Z,31.23
2019-01-21T17:24:36.038Z,37.97
2019-01-21T17:27:05.138Z,35.40
2019-01-21T17:29:34.631Z,36.60
2019-01-21T17:32:04.058Z,37.13
2019-01-21T17:34:33.169Z,34.73
2019-01-21T17:37:02.427Z,36.27
2019-01-21T17:39:31.634Z,35.70
2019-01-21T17:42:00.738Z,36.67
2019-01-21T17:44:29.867Z,37.27
2019-01-21T17:46:58.973Z,37.13
2019-01-21T17:49:28.096Z,36.30
2019-01-21T17:51:57.209Z,35.50
2019-01-21T17:54:26.327Z,35.40
2019-01-21T17:56:55.439Z,34.53
2019-01-21T17:59:24.576Z,35.20
2019-01-21T18:01:53.751Z,35.43
2019-01-21T18:04:22.882Z,34.73
2019-01-21T18:06:51.991Z,32.90
2019-01-21T18:09:21.184Z,36.70
2019-01-21T18:11:50.296Z,36.20
2019-01-21T18:14:19.412Z,31.27
2019-01-21T18:16:49.482Z,32.23
2019-01-21T18:19:18.606Z,33.07
2019-01-21T18:21:47.739Z,33.47
2019-01-21T18:24:16.959Z,36.00
2019-01-21T18:26:46.071Z,33.57
2019-01-21T18:29:15.436Z,35.23
2019-01-21T18:31:44.546Z,34.90
2019-01-21T18:34:13.678Z,34.30
2019-01-21T18:36:42.789Z,35.83
2019-01-21T18:39:11.961Z,35.67
2019-01-21T18:41:41.111Z,36.37
2019-01-21T18:44:10.214Z,38.57
2019-01-21T18:46:39.334Z,36.37
2019-01-21T18:49:08.578Z,36.73
2019-01-21T18:51:37.695Z,37.83
2019-01-21T18:54:06.811Z,38.40
2019-01-21T18:56:35.934Z,40.97
2019-01-21T18:59:05.235Z,40.20
2019-01-21T19:01:34.391Z,38.07
2019-01-21T19:04:03.498Z,38.50
2019-01-21T19:06:32.634Z,36.87
2019-01-21T19:09:01.764Z,36.40
2019-01-21T19:11:32.679Z,39.53
2019-01-21T19:14:01.778Z,37.57
2019-01-21T19:16:30.896Z,36.97
2019-01-21T19:19:00.015Z,39.53
2019-01-21T19:21:29.240Z,40.83
2019-01-21T19:23:58.342Z,40.70
2019-01-21T19:26:27.475Z,40.67
2019-01-21T19:28:56.644Z,46.17
2019-01-21T19:31:25.763Z,43.80
2019-01-21T19:33:54.873Z,46.37
2019-01-21T19:36:23.991Z,44.87
2019-01-21T19:38:53.105Z,43.80
2019-01-21T19:41:22.245Z,45.07
2019-01-21T19:43:51.423Z,44.93
2019-01-21T19:46:20.546Z,43.80
2019-01-21T19:48:49.762Z,44.30
2019-01-21T19:51:20.964Z,45.57
2019-01-21T19:53:50.104Z,46.13
2019-01-21T19:56:19.272Z,48.53
2019-01-21T19:58:48.386Z,46.27
2019-01-21T20:01:17.577Z,46.53
2019-01-21T20:03:46.688Z,44.70
2019-01-21T20:06:15.803Z,44.47
2019-01-21T20:08:44.937Z,44.57
2019-01-21T20:11:14.048Z,46.00
2019-01-21T20:13:43.163Z,45.53
2019-01-21T20:16:12.279Z,43.10
2019-01-21T20:18:41.477Z,47.03
2019-01-21T20:21:11.697Z,46.80
2019-01-21T20:23:40.799Z,44.83
2019-01-21T20:26:09.925Z,46.63
2019-01-21T20:28:39.038Z,47.53
2019-01-21T20:31:08.153Z,44.43
2019-01-21T20:33:37.331Z,42.87
2019-01-21T20:36:06.447Z,41.03
2019-01-21T20:38:35.566Z,39.37
2019-01-21T20:41:04.685Z,39.57
2019-01-21T20:43:33.899Z,37.07
2019-01-21T20:46:03.043Z,36.53
2019-01-21T20:48:32.159Z,35.80
2019-01-21T20:51:01.296Z,34.87
2019-01-21T20:53:30.414Z,40.83
2019-01-21T20:55:59.527Z,39.13
2019-01-21T20:58:28.677Z,40.37
2019-01-21T21:00:57.792Z,37.60
2019-01-21T21:03:27.070Z,37.13
2019-01-21T21:05:56.212Z,33.73
2019-01-21T21:08:25.332Z,34.23
2019-01-21T21:10:54.463Z,34.40
2019-01-21T21:13:23.586Z,35.80
2019-01-21T21:15:52.690Z,37.90
2019-01-21T21:18:21.822Z,38.57
2019-01-21T21:20:50.979Z,37.33
2019-01-21T21:23:20.082Z,36.27
2019-01-21T21:25:49.183Z,36.77
2019-01-21T21:28:18.373Z,35.10
2019-01-21T21:30:47.872Z,37.97
2019-01-21T21:33:17.006Z,37.73
2019-01-21T21:35:47.071Z,39.33
2019-01-21T21:38:16.204Z,40.10
2019-01-21T21:40:45.298Z,37.73
2019-01-21T21:43:14.483Z,37.97
2019-01-21T21:45:43.605Z,39.20
2019-01-21T21:48:12.797Z,39.17
2019-01-21T21:50:41.971Z,33.57
2019-01-21T21:53:11.083Z,33.63
2019-01-21T21:55:40.191Z,31.50
2019-01-21T21:58:09.318Z,33.07
2019-01-21T22:00:38.423Z,33.73
2019-01-21T22:03:07.725Z,36.20
2019-01-21T22:05:36.834Z,36.57
2019-01-21T22:08:06.081Z,33.90
2019-01-21T22:10:35.574Z,32.77
2019-01-21T22:13:04.692Z,32.27
2019-01-21T22:15:33.795Z,34.50
2019-01-21T22:18:03.896Z,34.90
2019-01-21T22:20:33.016Z,32.67
2019-01-21T22:23:02.552Z,31.80
2019-01-21T22:25:31.671Z,31.53
2019-01-21T22:28:00.852Z,33.53
2019-01-21T22:30:29.967Z,31.77
2019-01-21T22:32:59.101Z,30.23
2019-01-21T22:35:28.215Z,32.47
2019-01-21T22:37:57.328Z,32.73
2019-01-21T22:40:26.442Z,31.60
2019-01-21T22:42:55.592Z,30.90
2019-01-21T22:45:24.834Z,32.33
2019-01-21T22:47:54.928Z,32.73
2019-01-21T22:50:24.036Z,32.57
2019-01-21T22:52:54.541Z,31.83
2019-01-21T22:55:23.937Z,31.10
2019-01-21T22:57:53.168Z,31.03
2019-01-21T23:00:45.706Z,30.87
2019-01-21T23:03:14.988Z,29.77
2019-01-21T23:05:44.113Z,29.23
2019-01-21T23:08:13.216Z,29.40
2019-01-21T23:10:42.326Z,29.83
2019-01-21T23:13:11.507Z,28.50
2019-01-21T23:15:40.619Z,28.63
2019-01-21T23:18:09.727Z,29.37
2019-01-21T23:20:38.843Z,29.77
2019-01-21T23:23:08.232Z,31.37
2019-01-21T23:25:37.416Z,28.17
2019-01-21T23:28:06.528Z,29.03
2019-01-21T23:30:35.653Z,28.63
2019-01-21T23:33:04.843Z,29.33
2019-01-21T23:35:34.240Z,28.93
2019-01-21T23:38:03.427Z,28.23
2019-01-21T23:40:33.508Z,30.10
2019-01-21T23:43:02.684Z,30.80
2019-01-21T23:45:31.807Z,29.37
2019-01-21T23:48:00.919Z,27.87
2019-01-21T23:50:30.037Z,30.10
2019-01-21T23:52:59.235Z,27.30
2019-01-21T23:55:28.349Z,27.47
2019-01-21T23:57:57.452Z,27.03
